Time;durP1;ratioP1;P1;durP2;ratioP2;P2;SDS_P1;SDS_P2;PMS_P1;PMS_P2;Temp;Humidity;BMP_temperature;BMP_pressure;BME280_temperature;BME280_humidity;BME280_pressure;Samples;Min_cycle;Max_cycle;Signal;HPM_P1;HPM_P2
2022/12/19 00:01:55;;;;;;;38.90;35.10;;;;;;;-141.22;100.00;65034.22;5013382;28;20915;-53
2022/12/19 00:04:23;;;;;;;35.83;32.67;;;;;;;-141.22;100.00;65034.22;5011455;28;20433;-49
2022/12/19 00:06:50;;;;;;;40.03;35.70;;;;;;;-141.22;100.00;65034.22;5011868;28;20452;-52
2022/12/19 00:09:18;;;;;;;35.30;31.70;;;;;;;-141.22;100.00;65034.22;5011504;28;20428;-49
2022/12/19 00:11:48;;;;;;;36.33;32.63;;;;;;;-141.22;100.00;65034.22;5012377;28;20433;-53
2022/12/19 00:14:16;;;;;;;38.43;34.87;;;;;;;-141.22;100.00;65034.22;5011598;28;20438;-51
2022/12/19 00:16:44;;;;;;;38.00;34.57;;;;;;;-141.22;100.00;65034.22;5011119;28;20490;-51
2022/12/19 00:19:12;;;;;;;36.23;32.77;;;;;;;-141.22;100.00;65034.22;5011759;28;20445;-50
2022/12/19 00:21:40;;;;;;;37.97;34.17;;;;;;;-141.22;100.00;65034.22;5011193;28;20841;-53
2022/12/19 00:24:10;;;;;;;36.23;32.87;;;;;;;-141.22;100.00;65034.22;5011638;28;20437;-52
2022/12/19 00:26:49;;;;;;;34.80;31.57;;;;;;;-141.22;100.00;65034.22;5011532;28;20433;-54
2022/12/19 00:29:17;;;;;;;36.00;32.43;;;;;;;-141.22;100.00;65034.22;5010116;28;20431;-52
2022/12/19 00:31:45;;;;;;;37.17;32.53;;;;;;;-141.22;100.00;65034.22;5009461;28;20483;-52
2022/12/19 00:34:12;;;;;;;36.17;32.87;;;;;;;-141.22;100.00;65034.22;5011507;28;20428;-54
2022/12/19 00:36:41;;;;;;;36.23;32.90;;;;;;;-141.22;100.00;65034.22;5011060;28;20433;-51
2022/12/19 00:39:09;;;;;;;37.87;34.47;;;;;;;-141.22;100.00;65034.22;5010785;28;20479;-49
2022/12/19 00:41:39;;;;;;;39.10;35.03;;;;;;;-141.22;100.00;65034.22;5011390;28;20477;-48
2022/12/19 00:44:16;;;;;;;38.00;34.43;;;;;;;-141.22;100.00;65034.22;5011928;28;20507;-53
2022/12/19 00:46:44;;;;;;;38.33;34.23;;;;;;;-141.22;100.00;65034.22;5011518;28;20429;-53
2022/12/19 00:49:19;;;;;;;35.53;32.40;;;;;;;-141.22;100.00;65034.22;5011758;28;20468;-53
2022/12/19 00:51:47;;;;;;;37.33;33.77;;;;;;;-141.22;100.00;65034.22;5011681;28;20444;-49
2022/12/19 00:54:15;;;;;;;37.43;33.60;;;;;;;-141.22;100.00;65034.22;5011580;28;20515;-51
2022/12/19 00:56:43;;;;;;;37.73;34.13;;;;;;;-141.22;100.00;65034.22;5011019;28;20495;-50
2022/12/19 00:59:12;;;;;;;38.20;34.40;;;;;;;-141.22;100.00;65034.22;5010809;28;21053;-53
2022/12/19 01:01:41;;;;;;;37.90;34.03;;;;;;;-141.22;100.00;65034.22;5011255;28;20484;-50
2022/12/19 01:04:13;;;;;;;35.80;32.07;;;;;;;-141.22;100.00;65034.22;5011136;28;20433;-49
2022/12/19 01:07:00;;;;;;;36.87;33.27;;;;;;;-141.22;100.00;65034.22;5010564;28;20523;-47
2022/12/19 01:09:30;;;;;;;36.13;32.77;;;;;;;-141.22;100.00;65034.22;5010934;28;20481;-50
2022/12/19 01:14:44;;;;;;;35.77;32.47;;;;;;;-141.22;100.00;65034.22;5010657;28;20429;-51
2022/12/19 01:17:12;;;;;;;36.53;33.40;;;;;;;-141.22;100.00;65034.22;5011292;28;20461;-50
2022/12/19 01:19:40;;;;;;;38.30;34.70;;;;;;;-141.22;100.00;65034.22;5010173;28;20511;-48
2022/12/19 01:22:11;;;;;;;35.23;32.10;;;;;;;-141.22;100.00;65034.22;5010598;28;20472;-48
2022/12/19 01:24:40;;;;;;;37.20;33.30;;;;;;;-141.22;100.00;65034.22;5011174;28;20519;-50
2022/12/19 01:27:08;;;;;;;35.73;32.37;;;;;;;-141.22;100.00;65034.22;5010785;28;20468;-50
2022/12/19 01:29:35;;;;;;;37.17;33.57;;;;;;;-141.22;100.00;65034.22;5010122;28;20465;-49
2022/12/19 01:32:20;;;;;;;37.17;33.17;;;;;;;-141.22;100.00;65034.22;5010351;28;20436;-50
2022/12/19 01:34:48;;;;;;;36.80;33.30;;;;;;;-141.22;100.00;65034.22;5010843;28;20772;-48
2022/12/19 01:37:16;;;;;;;36.60;33.50;;;;;;;-141.22;100.00;65034.22;5009271;28;20461;-50
2022/12/19 01:39:44;;;;;;;37.63;33.93;;;;;;;-141.22;100.00;65034.22;5010285;28;20456;-50
2022/12/19 01:42:16;;;;;;;35.20;32.30;;;;;;;-141.22;100.00;65034.22;5010337;28;20535;-51
2022/12/19 01:45:05;;;;;;;38.37;33.60;;;;;;;-141.22;100.00;65034.22;5010864;28;20844;-48
2022/12/19 01:47:44;;;;;;;36.50;33.13;;;;;;;-141.22;100.00;65034.22;5010047;28;20475;-48
2022/12/19 01:50:19;;;;;;;36.77;33.43;;;;;;;-141.22;100.00;65034.22;5009931;28;20457;-52
2022/12/19 01:52:47;;;;;;;35.70;32.80;;;;;;;-141.22;100.00;65034.22;5010693;28;20433;-47
2022/12/19 01:55:16;;;;;;;38.13;34.73;;;;;;;-141.22;100.00;65034.22;5009937;28;20441;-48
2022/12/19 01:57:44;;;;;;;38.13;34.63;;;;;;;-141.22;100.00;65034.22;5009810;28;20465;-48
2022/12/19 02:00:12;;;;;;;36.33;33.07;;;;;;;-141.22;100.00;65034.22;5009864;28;20449;-49
2022/12/19 02:02:44;;;;;;;36.43;33.13;;;;;;;-141.22;100.00;65034.22;5009403;28;20473;-53
2022/12/19 02:05:12;;;;;;;36.40;33.30;;;;;;;-141.22;100.00;65034.22;5010391;28;20544;-50
2022/12/19 02:07:42;;;;;;;36.30;33.17;;;;;;;-141.22;100.00;65034.22;5009734;28;20468;-49
2022/12/19 02:10:10;;;;;;;36.63;33.43;;;;;;;-141.22;100.00;65034.22;5010338;28;20456;-48
2022/12/19 02:12:41;;;;;;;35.57;32.53;;;;;;;-141.22;100.00;65034.22;5010415;28;20524;-50
2022/12/19 02:15:11;;;;;;;36.20;32.90;;;;;;;-141.22;100.00;65034.22;5010909;28;20428;-49
2022/12/19 02:17:54;;;;;;;37.70;34.10;;;;;;;-141.22;100.00;65034.22;5010037;28;20463;-49
2022/12/19 02:20:59;;;;;;;39.13;35.63;;;;;;;-141.22;100.00;65034.22;5010231;28;20515;-50
2022/12/19 02:23:54;;;;;;;37.57;34.00;;;;;;;-141.22;100.00;65034.22;5010328;28;20473;-53
2022/12/19 02:26:46;;;;;;;36.33;33.03;;;;;;;-141.22;100.00;65034.22;5009615;28;20916;-48
2022/12/19 02:29:40;;;;;;;38.97;35.30;;;;;;;-141.22;100.00;65034.22;5009827;28;20540;-51
2022/12/19 02:32:18;;;;;;;38.03;34.67;;;;;;;-141.22;100.00;65034.22;5009642;28;21044;-52
2022/12/19 02:34:53;;;;;;;36.67;33.50;;;;;;;-141.22;100.00;65034.22;5009270;28;20428;-48
2022/12/19 02:37:26;;;;;;;36.70;33.77;;;;;;;-141.22;100.00;65034.22;5009545;28;20483;-50
2022/12/19 02:39:59;;;;;;;37.57;34.20;;;;;;;-141.22;100.00;65034.22;5009207;28;20507;-48
2022/12/19 02:42:30;;;;;;;38.17;34.93;;;;;;;-141.22;100.00;65034.22;5008786;28;20527;-48
2022/12/19 02:45:00;;;;;;;36.67;33.07;;;;;;;-141.22;100.00;65034.22;5009824;28;20440;-47
2022/12/19 02:47:31;;;;;;;38.60;35.00;;;;;;;-141.22;100.00;65034.22;5008858;28;21011;-50
2022/12/19 02:49:59;;;;;;;39.97;36.33;;;;;;;-141.22;100.00;65034.22;5009348;28;20500;-51
2022/12/19 02:52:54;;;;;;;36.10;33.13;;;;;;;-141.22;100.00;65034.22;5009421;28;20469;-48
2022/12/19 02:55:24;;;;;;;38.00;34.60;;;;;;;-141.22;100.00;65034.22;4963090;28;20523;-49
2022/12/19 02:58:19;;;;;;;38.47;34.73;;;;;;;-141.22;100.00;65034.22;5008671;28;20465;-51
2022/12/19 03:00:54;;;;;;;36.67;33.40;;;;;;;-141.22;100.00;65034.22;5008829;28;20457;-50
2022/12/19 03:03:34;;;;;;;37.27;33.67;;;;;;;-141.22;100.00;65034.22;5009525;28;20476;-51
2022/12/19 03:06:12;;;;;;;35.50;32.63;;;;;;;-141.22;100.00;65034.22;5009354;28;20429;-51
2022/12/19 03:08:47;;;;;;;37.70;34.50;;;;;;;-141.22;100.00;65034.22;5008224;28;20472;-51
2022/12/19 03:11:16;;;;;;;38.10;34.40;;;;;;;-141.22;100.00;65034.22;5008866;28;20856;-50
2022/12/19 03:13:48;;;;;;;36.13;32.83;;;;;;;-141.22;100.00;65034.22;5009621;28;20432;-51
2022/12/19 03:16:15;;;;;;;37.20;33.80;;;;;;;-141.22;100.00;65034.22;5009814;28;20452;-50
2022/12/19 03:18:45;;;;;;;37.67;34.67;;;;;;;-141.22;100.00;65034.22;5008441;28;20472;-49
2022/12/19 03:21:20;;;;;;;37.70;34.50;;;;;;;-141.22;100.00;65034.22;5008642;28;21107;-48
2022/12/19 03:23:50;;;;;;;35.03;32.03;;;;;;;-141.22;100.00;65034.22;5009241;28;20471;-50
2022/12/19 03:26:20;;;;;;;38.00;34.63;;;;;;;-141.22;100.00;65034.22;5009727;28;20429;-47
2022/12/19 03:28:52;;;;;;;36.87;33.47;;;;;;;-141.22;100.00;65034.22;5008740;28;20457;-52
2022/12/19 03:31:23;;;;;;;35.70;32.80;;;;;;;-141.22;100.00;65034.22;5009211;28;20457;-48
2022/12/19 03:33:55;;;;;;;38.50;35.30;;;;;;;-141.22;100.00;65034.22;5011730;28;20776;-48
2022/12/19 03:36:30;;;;;;;37.27;34.10;;;;;;;-141.22;100.00;65034.22;5013166;28;21283;-52
2022/12/19 03:39:02;;;;;;;34.83;31.60;;;;;;;-141.22;100.00;65034.22;4992413;28;20971;-48
2022/12/19 03:44:19;;;;;;;34.97;32.27;;;;;;;-141.22;100.00;65034.22;4992164;28;20505;-47
2022/12/19 03:46:55;;;;;;;36.07;33.17;;;;;;;-141.22;100.00;65034.22;4992289;28;20434;-47
2022/12/19 03:49:24;;;;;;;35.00;32.10;;;;;;;-141.22;100.00;65034.22;4991821;28;20446;-51
2022/12/19 03:52:00;;;;;;;36.27;33.27;;;;;;;-141.22;100.00;65034.22;4992469;28;20961;-50
2022/12/19 03:54:31;;;;;;;35.00;31.97;;;;;;;-141.22;100.00;65034.22;4992640;28;20428;-47
2022/12/19 03:57:06;;;;;;;35.93;32.80;;;;;;;-141.22;100.00;65034.22;4992005;28;20454;-49
2022/12/19 03:59:39;;;;;;;35.10;32.10;;;;;;;-141.22;100.00;65034.22;4992068;28;20467;-53
2022/12/19 04:02:09;;;;;;;36.13;33.17;;;;;;;-141.22;100.00;65034.22;4993113;28;20434;-52
2022/12/19 04:04:42;;;;;;;38.23;35.00;;;;;;;-141.22;100.00;65034.22;4992820;28;20488;-50
2022/12/19 04:07:11;;;;;;;36.87;33.33;;;;;;;-141.22;100.00;65034.22;4992096;28;20497;-49
2022/12/19 04:09:42;;;;;;;37.30;33.63;;;;;;;-141.22;100.00;65034.22;4992704;28;20458;-50
2022/12/19 04:12:16;;;;;;;37.67;34.30;;;;;;;-141.22;100.00;65034.22;4993285;28;20451;-49
2022/12/19 04:14:45;;;;;;;37.27;33.80;;;;;;;-141.22;100.00;65034.22;4991771;28;20426;-50
2022/12/19 04:17:19;;;;;;;37.73;34.40;;;;;;;-141.22;100.00;65034.22;4992382;28;20474;-50
2022/12/19 04:19:57;;;;;;;37.10;33.90;;;;;;;-141.22;100.00;65034.22;4991674;28;20496;-50
2022/12/19 04:22:30;;;;;;;40.60;36.63;;;;;;;-141.22;100.00;65034.22;4991811;28;20469;-55
2022/12/19 04:25:04;;;;;;;36.60;33.70;;;;;;;-141.22;100.00;65034.22;4992770;28;20774;-48
2022/12/19 04:27:34;;;;;;;40.00;36.07;;;;;;;-141.22;100.00;65034.22;4991058;28;20458;-51
2022/12/19 04:30:03;;;;;;;39.70;36.23;;;;;;;-141.22;100.00;65034.22;4990903;28;20540;-51
2022/12/19 04:32:34;;;;;;;41.93;38.03;;;;;;;-141.22;100.00;65034.22;4992404;28;20809;-53
2022/12/19 04:35:04;;;;;;;38.60;35.20;;;;;;;-141.22;100.00;65034.22;4990645;28;20934;-50
2022/12/19 04:37:32;;;;;;;39.07;35.30;;;;;;;-141.22;100.00;65034.22;4991159;28;21003;-49
2022/12/19 04:39:59;;;;;;;40.80;37.00;;;;;;;-141.22;100.00;65034.22;4991413;28;20454;-49
2022/12/19 04:42:27;;;;;;;41.77;38.30;;;;;;;-141.22;100.00;65034.22;4991482;28;20797;-54
2022/12/19 04:44:55;;;;;;;37.93;34.97;;;;;;;-141.22;100.00;65034.22;4991358;28;20473;-48
2022/12/19 04:47:22;;;;;;;39.00;35.40;;;;;;;-141.22;100.00;65034.22;4990786;28;20465;-50
2022/12/19 04:49:50;;;;;;;39.93;36.77;;;;;;;-141.22;100.00;65034.22;4990572;28;20508;-53
2022/12/19 04:52:19;;;;;;;39.03;35.70;;;;;;;-141.22;100.00;65034.22;4990367;28;20438;-48
2022/12/19 04:54:47;;;;;;;38.07;34.80;;;;;;;-141.22;100.00;65034.22;4990655;28;20492;-53
2022/12/19 04:57:15;;;;;;;39.83;35.90;;;;;;;-141.22;100.00;65034.22;4989780;28;20465;-51
2022/12/19 04:59:43;;;;;;;40.13;36.57;;;;;;;-141.22;100.00;65034.22;4991964;28;20497;-48
2022/12/19 05:02:10;;;;;;;36.20;33.07;;;;;;;-141.22;100.00;65034.22;4991148;28;20434;-49
2022/12/19 05:04:38;;;;;;;38.03;34.60;;;;;;;-141.22;100.00;65034.22;4991297;28;20564;-49
2022/12/19 05:07:06;;;;;;;38.83;35.30;;;;;;;-141.22;100.00;65034.22;4991313;28;20988;-51
2022/12/19 05:09:35;;;;;;;39.40;35.67;;;;;;;-141.22;100.00;65034.22;4991318;28;20465;-46
2022/12/19 05:12:03;;;;;;;40.47;36.97;;;;;;;-141.22;100.00;65034.22;4989978;28;20508;-49
2022/12/19 05:14:32;;;;;;;40.20;36.60;;;;;;;-141.22;100.00;65034.22;4991202;28;20445;-49
2022/12/19 05:16:59;;;;;;;38.43;35.53;;;;;;;-141.22;100.00;65034.22;4994507;28;20465;-53
2022/12/19 05:19:29;;;;;;;41.80;37.70;;;;;;;-141.22;100.00;65034.22;5010617;28;20484;-53
2022/12/19 05:21:56;;;;;;;38.10;34.70;;;;;;;-141.22;100.00;65034.22;5011025;28;20805;-48
2022/12/19 05:24:24;;;;;;;37.13;33.90;;;;;;;-141.22;100.00;65034.22;5009887;28;20469;-49
2022/12/19 05:26:53;;;;;;;38.70;35.70;;;;;;;-141.22;100.00;65034.22;5010223;28;20519;-52
2022/12/19 05:29:21;;;;;;;41.40;38.20;;;;;;;-141.22;100.00;65034.22;5010215;28;20433;-53
2022/12/19 05:31:49;;;;;;;41.47;37.57;;;;;;;-141.22;100.00;65034.22;5011112;28;20433;-54
2022/12/19 05:34:17;;;;;;;42.50;38.60;;;;;;;-141.22;100.00;65034.22;5009998;28;20491;-50
2022/12/19 05:36:45;;;;;;;41.70;38.20;;;;;;;-141.22;100.00;65034.22;5010605;28;20441;-53
2022/12/19 05:39:13;;;;;;;40.67;37.23;;;;;;;-141.22;100.00;65034.22;5009464;28;20429;-50
2022/12/19 05:41:40;;;;;;;40.67;36.90;;;;;;;-141.22;100.00;65034.22;5010711;28;20827;-50
2022/12/19 05:44:10;;;;;;;43.47;39.87;;;;;;;-141.22;100.00;65034.22;5010561;28;20480;-50
2022/12/19 05:46:39;;;;;;;41.30;37.60;;;;;;;-141.22;100.00;65034.22;5010406;28;20456;-50
2022/12/19 05:49:07;;;;;;;42.07;38.00;;;;;;;-141.22;100.00;65034.22;5009527;28;20500;-49
2022/12/19 05:51:35;;;;;;;39.57;36.17;;;;;;;-141.22;100.00;65034.22;5009800;28;20637;-52
2022/12/19 05:54:03;;;;;;;41.17;37.63;;;;;;;-141.22;100.00;65034.22;5010260;28;20464;-48
2022/12/19 05:56:31;;;;;;;38.80;35.50;;;;;;;-141.22;100.00;65034.22;5008402;28;20956;-49
2022/12/19 05:58:58;;;;;;;41.47;37.70;;;;;;;-141.22;100.00;65034.22;5009842;28;20441;-49
2022/12/19 06:01:29;;;;;;;39.93;36.43;;;;;;;-141.22;100.00;65034.22;5009558;28;21099;-51
2022/12/19 06:03:56;;;;;;;41.13;37.67;;;;;;;-141.22;100.00;65034.22;5009763;28;21027;-49
2022/12/19 06:06:25;;;;;;;43.77;39.67;;;;;;;-141.22;100.00;65034.22;5009749;28;20840;-47
2022/12/19 06:08:54;;;;;;;41.20;37.87;;;;;;;-141.22;100.00;65034.22;5008032;28;20456;-51
2022/12/19 06:11:22;;;;;;;41.50;37.63;;;;;;;-141.22;100.00;65034.22;5009679;28;20445;-50
2022/12/19 06:13:51;;;;;;;42.30;38.70;;;;;;;-141.22;100.00;65034.22;5009287;28;20418;-49
2022/12/19 06:16:20;;;;;;;42.70;39.00;;;;;;;-141.22;100.00;65034.22;5008843;28;20437;-53
2022/12/19 06:18:50;;;;;;;43.13;39.03;;;;;;;-141.22;100.00;65034.22;5008943;28;20454;-49
2022/12/19 06:21:19;;;;;;;42.47;38.87;;;;;;;-141.22;100.00;65034.22;5008565;28;20465;-50
2022/12/19 06:23:47;;;;;;;42.30;38.13;;;;;;;-141.22;100.00;65034.22;5009725;28;20455;-49
2022/12/19 06:26:17;;;;;;;48.67;44.03;;;;;;;-141.22;100.00;65034.22;5009255;28;20439;-50
2022/12/19 06:28:47;;;;;;;45.13;41.30;;;;;;;-141.22;100.00;65034.22;5008731;28;20995;-50
2022/12/19 06:31:15;;;;;;;42.33;38.73;;;;;;;-141.22;100.00;65034.22;5009002;28;20955;-52
2022/12/19 06:33:44;;;;;;;43.53;39.67;;;;;;;-141.22;100.00;65034.22;5009805;28;20851;-48
2022/12/19 06:36:15;;;;;;;43.33;39.60;;;;;;;-141.22;100.00;65034.22;5009499;28;20437;-50
2022/12/19 06:38:43;;;;;;;44.87;41.03;;;;;;;-141.22;100.00;65034.22;5008169;28;20448;-47
2022/12/19 06:43:58;;;;;;;41.83;38.20;;;;;;;-141.22;100.00;65034.22;5009061;28;20444;-48
2022/12/19 06:46:26;;;;;;;44.93;41.33;;;;;;;-141.22;100.00;65034.22;5008628;28;21014;-48
2022/12/19 06:48:53;;;;;;;46.27;41.57;;;;;;;-141.22;100.00;65034.22;5008835;28;20449;-51
2022/12/19 06:51:23;;;;;;;46.57;42.60;;;;;;;-141.22;100.00;65034.22;5008892;28;20472;-49
2022/12/19 06:53:51;;;;;;;45.73;41.70;;;;;;;-141.22;100.00;65034.22;5009302;28;20440;-48
2022/12/19 06:56:19;;;;;;;46.73;41.90;;;;;;;-141.22;100.00;65034.22;5009167;28;20437;-50
2022/12/19 06:58:47;;;;;;;46.13;41.67;;;;;;;-141.22;100.00;65034.22;5008657;28;20465;-49
2022/12/19 07:01:19;;;;;;;47.60;43.23;;;;;;;-141.22;100.00;65034.22;5008863;28;20465;-50
2022/12/19 07:03:48;;;;;;;44.57;40.60;;;;;;;-141.22;100.00;65034.22;5010539;28;20441;-49
2022/12/19 07:06:16;;;;;;;48.53;44.03;;;;;;;-141.22;100.00;65034.22;5008763;28;20472;-48
2022/12/19 07:08:46;;;;;;;47.00;42.50;;;;;;;-141.22;100.00;65034.22;5011756;28;20469;-49
2022/12/19 07:11:14;;;;;;;50.17;45.57;;;;;;;-141.22;100.00;65034.22;5013087;28;20510;-48
2022/12/19 07:13:41;;;;;;;48.00;43.70;;;;;;;-141.22;100.00;65034.22;5012855;28;20433;-47
2022/12/19 07:16:09;;;;;;;49.03;44.43;;;;;;;-141.22;100.00;65034.22;5012397;28;20436;-51
2022/12/19 07:18:39;;;;;;;49.93;45.00;;;;;;;-141.22;100.00;65034.22;5012603;28;20461;-51
2022/12/19 07:21:10;;;;;;;49.90;45.07;;;;;;;-141.22;100.00;65034.22;5012872;28;20547;-51
2022/12/19 07:23:38;;;;;;;47.63;43.20;;;;;;;-141.22;100.00;65034.22;5013269;28;20504;-52
2022/12/19 07:26:07;;;;;;;50.97;45.47;;;;;;;-141.22;100.00;65034.22;5011874;28;20502;-49
2022/12/19 07:28:36;;;;;;;48.40;44.00;;;;;;;-141.22;100.00;65034.22;5011498;28;20837;-49
2022/12/19 07:31:04;;;;;;;49.00;44.40;;;;;;;-141.22;100.00;65034.22;5012714;28;20552;-51
2022/12/19 07:33:32;;;;;;;51.37;46.07;;;;;;;-141.22;100.00;65034.22;5011942;28;20441;-50
2022/12/19 07:36:00;;;;;;;51.50;46.40;;;;;;;-141.22;100.00;65034.22;5012047;28;20429;-52
2022/12/19 07:38:27;;;;;;;48.50;43.40;;;;;;;-141.22;100.00;65034.22;5011378;28;20462;-49
2022/12/19 07:40:55;;;;;;;49.10;44.27;;;;;;;-141.22;100.00;65034.22;5012250;28;20463;-48
2022/12/19 07:43:24;;;;;;;48.37;43.83;;;;;;;-141.22;100.00;65034.22;5011616;28;20447;-52
2022/12/19 07:45:54;;;;;;;47.00;42.33;;;;;;;-141.22;100.00;65034.22;5011440;28;20804;-52
2022/12/19 07:48:23;;;;;;;50.47;45.67;;;;;;;-141.22;100.00;65034.22;5012040;28;20465;-46
2022/12/19 07:50:50;;;;;;;49.47;44.60;;;;;;;-141.22;100.00;65034.22;5010975;28;20461;-48
2022/12/19 07:53:18;;;;;;;48.67;44.07;;;;;;;-141.22;100.00;65034.22;5012398;28;20440;-48
2022/12/19 07:55:46;;;;;;;50.57;45.27;;;;;;;-141.22;100.00;65034.22;5012276;28;20437;-54
2022/12/19 07:58:14;;;;;;;48.93;44.33;;;;;;;-141.22;100.00;65034.22;5012359;28;20556;-47
2022/12/19 08:00:43;;;;;;;49.93;44.80;;;;;;;-141.22;100.00;65034.22;5012840;28;20491;-53
2022/12/19 08:03:11;;;;;;;46.50;42.20;;;;;;;-141.22;100.00;65034.22;5012232;28;20440;-50
2022/12/19 08:05:38;;;;;;;49.27;44.53;;;;;;;-141.22;100.00;65034.22;5011776;28;20473;-50
2022/12/19 08:08:07;;;;;;;47.57;43.13;;;;;;;-141.22;100.00;65034.22;5010974;28;20465;-51
2022/12/19 08:10:35;;;;;;;51.03;45.70;;;;;;;-141.22;100.00;65034.22;5012489;28;20468;-49
2022/12/19 08:13:03;;;;;;;48.90;44.13;;;;;;;-141.22;100.00;65034.22;5012420;28;20979;-48
2022/12/19 08:15:31;;;;;;;49.80;45.10;;;;;;;-141.22;100.00;65034.22;5011199;28;20788;-50
2022/12/19 08:18:00;;;;;;;46.97;42.70;;;;;;;-141.22;100.00;65034.22;5011362;28;20547;-48
2022/12/19 08:20:28;;;;;;;48.90;43.80;;;;;;;-141.22;100.00;65034.22;5011687;28;20461;-50
2022/12/19 08:22:56;;;;;;;51.13;46.03;;;;;;;-141.22;100.00;65034.22;5011715;28;20439;-49
2022/12/19 08:25:25;;;;;;;54.90;49.20;;;;;;;-141.22;100.00;65034.22;5012518;28;20817;-48
2022/12/19 08:27:53;;;;;;;49.47;44.67;;;;;;;-141.22;100.00;65034.22;5011716;28;20480;-49
2022/12/19 08:30:21;;;;;;;51.00;45.47;;;;;;;-141.22;100.00;65034.22;5012211;28;20453;-49
2022/12/19 08:32:48;;;;;;;50.50;45.33;;;;;;;-141.22;100.00;65034.22;5011489;28;20782;-49
2022/12/19 08:35:17;;;;;;;57.57;46.00;;;;;;;-141.22;100.00;65034.22;5011524;28;20425;-50
2022/12/19 08:37:45;;;;;;;49.80;45.10;;;;;;;-141.22;100.00;65034.22;5011447;28;20519;-48
2022/12/19 08:40:13;;;;;;;50.47;45.77;;;;;;;-141.22;100.00;65034.22;5011438;28;20453;-48
2022/12/19 08:42:41;;;;;;;52.20;47.17;;;;;;;-141.22;100.00;65034.22;5011534;28;20441;-51
2022/12/19 08:45:09;;;;;;;51.20;46.00;;;;;;;-141.22;100.00;65034.22;5011078;28;20480;-48
2022/12/19 08:47:37;;;;;;;48.97;44.27;;;;;;;-141.22;100.00;65034.22;5010436;28;20465;-48
2022/12/19 08:50:05;;;;;;;49.67;44.40;;;;;;;-141.22;100.00;65034.22;5011423;28;20491;-48
2022/12/19 08:52:34;;;;;;;50.93;45.70;;;;;;;-141.22;100.00;65034.22;5011317;28;20944;-49
2022/12/19 08:55:04;;;;;;;48.50;44.07;;;;;;;-141.22;100.00;65034.22;5011527;28;20433;-49
2022/12/19 08:57:31;;;;;;;50.17;44.97;;;;;;;-141.22;100.00;65034.22;5010523;28;20469;-47
2022/12/19 08:59:59;;;;;;;47.53;43.27;;;;;;;-141.22;100.00;65034.22;5011577;28;20449;-48
2022/12/19 09:02:28;;;;;;;50.50;45.43;;;;;;;-141.22;100.00;65034.22;5011556;28;20441;-49
2022/12/19 09:04:56;;;;;;;49.97;45.30;;;;;;;-141.22;100.00;65034.22;5011376;28;20445;-52
2022/12/19 09:07:45;;;;;;;49.80;44.90;;;;;;;-141.22;100.00;65034.22;5011132;28;20460;-47
2022/12/19 09:10:13;;;;;;;48.13;43.93;;;;;;;-141.22;100.00;65034.22;5010725;28;20980;-49
2022/12/19 09:12:42;;;;;;;48.43;43.80;;;;;;;-141.22;100.00;65034.22;5010203;28;20437;-48
2022/12/19 09:15:10;;;;;;;48.73;44.03;;;;;;;-141.22;100.00;65034.22;5010099;28;20433;-50
2022/12/19 09:17:38;;;;;;;48.63;44.50;;;;;;;-141.22;100.00;65034.22;5010476;28;20807;-49
2022/12/19 09:20:07;;;;;;;50.33;45.27;;;;;;;-141.22;100.00;65034.22;5010308;28;20467;-48
2022/12/19 09:22:35;;;;;;;49.20;44.23;;;;;;;-141.22;100.00;65034.22;5010414;28;20503;-48
2022/12/19 09:25:04;;;;;;;49.90;44.90;;;;;;;-141.22;100.00;65034.22;5011087;28;20443;-49
2022/12/19 09:27:33;;;;;;;49.80;45.47;;;;;;;-141.22;100.00;65034.22;5009401;28;20469;-49
2022/12/19 09:30:21;;;;;;;45.70;41.23;;;;;;;-141.22;100.00;65034.22;5010274;28;20453;-49
2022/12/19 09:32:49;;;;;;;46.33;42.33;;;;;;;-141.22;100.00;65034.22;5010512;28;20429;-51
2022/12/19 09:35:16;;;;;;;47.47;43.00;;;;;;;-141.22;100.00;65034.22;5048514;23;20495;-48
2022/12/19 09:37:44;;;;;;;47.53;42.90;;;;;;;-141.22;100.00;65034.22;5033320;28;20899;-49
2022/12/19 09:40:16;;;;;;;46.20;42.07;;;;;;;-141.22;100.00;65034.22;5039416;28;20439;-52
2022/12/19 09:43:02;;;;;;;47.57;43.17;;;;;;;-141.22;100.00;65034.22;5032765;28;20435;-50
2022/12/19 09:45:53;;;;;;;47.20;42.60;;;;;;;-141.22;100.00;65034.22;5032078;28;20824;-50
2022/12/19 09:48:22;;;;;;;45.93;42.03;;;;;;;-141.22;100.00;65034.22;5032125;28;20514;-50
2022/12/19 09:50:56;;;;;;;49.27;44.73;;;;;;;-141.22;100.00;65034.22;5032623;28;20432;-53
2022/12/19 09:53:44;;;;;;;47.60;43.50;;;;;;;-141.22;100.00;65034.22;5032521;28;20434;-52
2022/12/19 09:56:26;;;;;;;45.13;41.20;;;;;;;-141.22;100.00;65034.22;5032622;28;20435;-52
2022/12/19 09:59:01;;;;;;;45.53;41.50;;;;;;;-141.22;100.00;65034.22;5032210;28;20443;-50
2022/12/19 10:01:36;;;;;;;44.87;41.13;;;;;;;-141.22;100.00;65034.22;5032323;28;20432;-51
2022/12/19 10:04:10;;;;;;;44.13;40.40;;;;;;;-141.22;100.00;65034.22;5032133;28;20451;-50
2022/12/19 10:06:38;;;;;;;43.90;40.20;;;;;;;-141.22;100.00;65034.22;5031902;28;20562;-52
2022/12/19 10:09:32;;;;;;;43.03;39.43;;;;;;;-141.22;100.00;65034.22;5032143;28;20459;-52
2022/12/19 10:12:33;;;;;;;43.53;39.90;;;;;;;-141.22;100.00;65034.22;5032074;28;20967;-54
2022/12/19 10:15:21;;;;;;;43.63;40.17;;;;;;;-141.22;100.00;65034.22;5032006;28;20452;-50
2022/12/19 10:18:08;;;;;;;42.20;38.60;;;;;;;-141.22;100.00;65034.22;5031655;28;20455;-51
2022/12/19 10:20:41;;;;;;;42.23;39.17;;;;;;;-141.22;100.00;65034.22;5032067;28;20843;-50
2022/12/19 10:23:27;;;;;;;42.83;39.50;;;;;;;-141.22;100.00;65034.22;5031976;28;20436;-55
2022/12/19 10:25:59;;;;;;;42.93;39.90;;;;;;;-141.22;100.00;65034.22;5031786;28;20807;-54
2022/12/19 10:28:46;;;;;;;41.47;38.27;;;;;;;-141.22;100.00;65034.22;5031417;28;20475;-53
2022/12/19 10:31:18;;;;;;;42.80;39.43;;;;;;;-141.22;100.00;65034.22;5031802;28;20443;-52
2022/12/19 10:33:57;;;;;;;41.43;37.53;;;;;;;-141.22;100.00;65034.22;5031770;28;20436;-46
2022/12/19 10:36:25;;;;;;;42.30;39.03;;;;;;;-141.22;100.00;65034.22;5031667;28;20434;-53
2022/12/19 10:39:20;;;;;;;42.87;39.63;;;;;;;-141.22;100.00;65034.22;5039831;28;20445;-50
2022/12/19 10:41:51;;;;;;;39.57;36.43;;;;;;;-141.22;100.00;65034.22;5031305;28;20440;-53
2022/12/19 10:44:22;;;;;;;41.07;37.97;;;;;;;-141.22;100.00;65034.22;5031528;28;20452;-52
2022/12/19 10:46:52;;;;;;;39.13;36.13;;;;;;;-141.22;100.00;65034.22;5031063;28;20467;-48
2022/12/19 10:49:22;;;;;;;39.63;36.57;;;;;;;-141.22;100.00;65034.22;5031583;28;20947;-53
2022/12/19 10:51:57;;;;;;;42.07;38.97;;;;;;;-141.22;100.00;65034.22;5031604;28;20927;-48
2022/12/19 10:54:25;;;;;;;37.87;35.13;;;;;;;-141.22;100.00;65034.22;5031251;28;21166;-53
2022/12/19 10:57:18;;;;;;;38.70;35.93;;;;;;;-141.22;100.00;65034.22;5031322;28;20467;-53
2022/12/19 10:59:56;;;;;;;39.93;36.87;;;;;;;-141.22;100.00;65034.22;5031761;28;20421;-53
2022/12/19 11:02:34;;;;;;;39.03;36.23;;;;;;;-141.22;100.00;65034.22;5031579;28;20915;-51
2022/12/19 11:05:03;;;;;;;41.30;38.13;;;;;;;-141.22;100.00;65034.22;5031385;28;20827;-50
2022/12/19 11:07:31;;;;;;;37.60;35.20;;;;;;;-141.22;100.00;65034.22;5031002;28;20464;-48
2022/12/19 11:09:58;;;;;;;40.40;37.17;;;;;;;-141.22;100.00;65034.22;5031945;28;20955;-51
2022/12/19 11:12:52;;;;;;;40.70;37.37;;;;;;;-141.22;100.00;65034.22;5032124;28;20435;-54
2022/12/19 11:15:48;;;;;;;41.80;38.30;;;;;;;-141.22;100.00;65034.22;5031244;28;20456;-52
2022/12/19 11:18:37;;;;;;;40.57;37.60;;;;;;;-141.22;100.00;65034.22;5030890;28;20526;-52
2022/12/19 11:21:29;;;;;;;39.50;36.33;;;;;;;-141.22;100.00;65034.22;5030957;28;20943;-54
2022/12/19 11:24:24;;;;;;;38.50;35.30;;;;;;;-141.22;100.00;65034.22;5031031;28;20448;-47